sensor_id;sensor_type;location;lat;lon;timestamp;pressure;altitude;pressure_sealevel;temperature;humidity
69060;BME280;56135;37.534;-122.308;2022-08-01T00:02:11;101337.81;;;22.53;56.10
69060;BME280;56135;37.534;-122.308;2022-08-01T00:04:36;101331.97;;;22.45;55.71
69060;BME280;56135;37.534;-122.308;2022-08-01T00:07:02;101342.16;;;22.56;56.23
69060;BME280;56135;37.534;-122.308;2022-08-01T00:09:29;101341.75;;;22.63;55.59
69060;BME280;56135;37.534;-122.308;2022-08-01T00:11:54;101343.09;;;22.72;55.27
69060;BME280;56135;37.534;-122.308;2022-08-01T00:14:20;101340.50;;;22.71;55.35
69060;BME280;56135;37.534;-122.308;2022-08-01T00:16:46;101338.47;;;22.74;55.08
69060;BME280;56135;37.534;-122.308;2022-08-01T00:19:12;101345.28;;;22.81;54.80
69060;BME280;56135;37.534;-122.308;2022-08-01T00:21:37;101337.97;;;22.83;55.23
69060;BME280;56135;37.534;-122.308;2022-08-01T00:24:03;101333.47;;;22.84;54.94
69060;BME280;56135;37.534;-122.308;2022-08-01T00:26:29;101336.94;;;22.86;54.40
69060;BME280;56135;37.534;-122.308;2022-08-01T00:28:55;101329.47;;;22.75;54.78
69060;BME280;56135;37.534;-122.308;2022-08-01T00:31:20;101334.25;;;22.86;54.94
69060;BME280;56135;37.534;-122.308;2022-08-01T00:33:46;101330.69;;;22.86;54.75
69060;BME280;56135;37.534;-122.308;2022-08-01T00:36:12;101327.72;;;22.90;55.05
69060;BME280;56135;37.534;-122.308;2022-08-01T00:38:38;101326.28;;;23.01;54.60
69060;BME280;56135;37.534;-122.308;2022-08-01T00:41:03;101322.88;;;22.97;54.25
69060;BME280;56135;37.534;-122.308;2022-08-01T00:43:29;101318.53;;;22.94;54.23
69060;BME280;56135;37.534;-122.308;2022-08-01T00:45:55;101319.31;;;22.80;54.45
69060;BME280;56135;37.534;-122.308;2022-08-01T00:48:21;101323.56;;;22.85;54.50
69060;BME280;56135;37.534;-122.308;2022-08-01T00:50:46;101328.41;;;22.78;54.48
69060;BME280;56135;37.534;-122.308;2022-08-01T00:53:12;101327.34;;;22.64;54.70
69060;BME280;56135;37.534;-122.308;2022-08-01T00:55:38;101323.31;;;22.56;54.69
69060;BME280;56135;37.534;-122.308;2022-08-01T00:58:04;101334.28;;;22.53;55.13
69060;BME280;56135;37.534;-122.308;2022-08-01T01:00:30;101326.91;;;22.56;54.89
69060;BME280;56135;37.534;-122.308;2022-08-01T01:02:57;101327.22;;;22.32;54.84
69060;BME280;56135;37.534;-122.308;2022-08-01T01:05:23;101326.53;;;22.29;55.41
69060;BME280;56135;37.534;-122.308;2022-08-01T01:12:54;101319.97;;;21.99;56.50
69060;BME280;56135;37.534;-122.308;2022-08-01T01:18:07;101323.59;;;21.98;56.18
69060;BME280;56135;37.534;-122.308;2022-08-01T01:20:39;101330.50;;;21.87;56.45
69060;BME280;56135;37.534;-122.308;2022-08-01T01:31:20;101323.59;;;21.63;57.11
69060;BME280;56135;37.534;-122.308;2022-08-01T01:33:46;101330.84;;;21.61;57.21
69060;BME280;56135;37.534;-122.308;2022-08-01T01:36:13;101323.03;;;21.57;57.23
69060;BME280;56135;37.534;-122.308;2022-08-01T01:38:41;101329.28;;;21.57;57.22
69060;BME280;56135;37.534;-122.308;2022-08-01T01:41:07;101315.75;;;21.59;57.40
69060;BME280;56135;37.534;-122.308;2022-08-01T01:43:33;101316.47;;;21.62;57.18
69060;BME280;56135;37.534;-122.308;2022-08-01T01:46:00;101318.22;;;21.63;56.96
69060;BME280;56135;37.534;-122.308;2022-08-01T01:48:27;101325.47;;;21.61;56.85
69060;BME280;56135;37.534;-122.308;2022-08-01T01:50:54;101327.41;;;21.59;57.20
69060;BME280;56135;37.534;-122.308;2022-08-01T01:53:21;101334.91;;;21.51;56.67
69060;BME280;56135;37.534;-122.308;2022-08-01T01:55:50;101338.50;;;21.52;57.01
69060;BME280;56135;37.534;-122.308;2022-08-01T01:58:17;101338.00;;;21.43;56.89
69060;BME280;56135;37.534;-122.308;2022-08-01T02:00:45;101344.13;;;21.28;57.21
69060;BME280;56135;37.534;-122.308;2022-08-01T02:03:12;101348.69;;;21.26;57.40
69060;BME280;56135;37.534;-122.308;2022-08-01T02:05:39;101352.19;;;21.09;57.69
69060;BME280;56135;37.534;-122.308;2022-08-01T02:08:07;101349.63;;;21.06;57.99
69060;BME280;56135;37.534;-122.308;2022-08-01T02:10:34;101349.06;;;20.99;58.06
69060;BME280;56135;37.534;-122.308;2022-08-01T02:13:02;101344.94;;;20.92;58.23
69060;BME280;56135;37.534;-122.308;2022-08-01T02:15:29;101350.41;;;20.89;58.42
69060;BME280;56135;37.534;-122.308;2022-08-01T02:17:55;101344.41;;;20.83;58.63
69060;BME280;56135;37.534;-122.308;2022-08-01T02:20:22;101340.19;;;20.78;59.14
69060;BME280;56135;37.534;-122.308;2022-08-01T02:22:52;101347.72;;;20.70;59.27
69060;BME280;56135;37.534;-122.308;2022-08-01T02:28:21;101349.00;;;20.40;60.85
69060;BME280;56135;37.534;-122.308;2022-08-01T02:30:53;101345.19;;;20.46;60.68
69060;BME280;56135;37.534;-122.308;2022-08-01T02:33:24;101345.59;;;20.37;60.76
69060;BME280;56135;37.534;-122.308;2022-08-01T02:35:51;101345.38;;;20.21;61.22
69060;BME280;56135;37.534;-122.308;2022-08-01T02:38:18;101350.22;;;20.12;61.60
69060;BME280;56135;37.534;-122.308;2022-08-01T02:40:46;101345.78;;;20.11;61.51
69060;BME280;56135;37.534;-122.308;2022-08-01T02:43:13;101342.44;;;20.06;61.56
69060;BME280;56135;37.534;-122.308;2022-08-01T02:45:42;101341.16;;;19.94;61.83
69060;BME280;56135;37.534;-122.308;2022-08-01T02:48:12;101344.16;;;19.87;62.03
69060;BME280;56135;37.534;-122.308;2022-08-01T02:50:39;101342.66;;;19.79;62.39
69060;BME280;56135;37.534;-122.308;2022-08-01T02:53:07;101341.16;;;19.72;62.21
69060;BME280;56135;37.534;-122.308;2022-08-01T02:55:35;101352.22;;;19.64;62.81
69060;BME280;56135;37.534;-122.308;2022-08-01T02:58:02;101361.41;;;19.57;62.93
69060;BME280;56135;37.534;-122.308;2022-08-01T03:00:28;101359.94;;;19.50;63.21
69060;BME280;56135;37.534;-122.308;2022-08-01T03:02:55;101353.81;;;19.46;63.46
69060;BME280;56135;37.534;-122.308;2022-08-01T03:05:22;101361.06;;;19.44;63.17
69060;BME280;56135;37.534;-122.308;2022-08-01T03:07:49;101356.88;;;19.37;63.87
69060;BME280;56135;37.534;-122.308;2022-08-01T03:10:17;101356.44;;;19.26;64.56
69060;BME280;56135;37.534;-122.308;2022-08-01T03:12:43;101364.13;;;19.11;65.08
69060;BME280;56135;37.534;-122.308;2022-08-01T03:15:10;101363.50;;;19.05;65.24
69060;BME280;56135;37.534;-122.308;2022-08-01T03:17:37;101361.22;;;18.94;65.50
69060;BME280;56135;37.534;-122.308;2022-08-01T03:20:04;101369.88;;;18.77;66.19
69060;BME280;56135;37.534;-122.308;2022-08-01T03:22:30;101372.00;;;18.67;66.30
69060;BME280;56135;37.534;-122.308;2022-08-01T03:24:58;101373.94;;;18.63;66.86
69060;BME280;56135;37.534;-122.308;2022-08-01T03:27:25;101364.28;;;18.58;67.00
69060;BME280;56135;37.534;-122.308;2022-08-01T03:29:51;101370.81;;;18.50;67.10
69060;BME280;56135;37.534;-122.308;2022-08-01T03:32:19;101375.59;;;18.41;67.38
69060;BME280;56135;37.534;-122.308;2022-08-01T03:34:46;101380.28;;;18.36;67.74
69060;BME280;56135;37.534;-122.308;2022-08-01T03:37:18;101383.81;;;18.36;67.66
69060;BME280;56135;37.534;-122.308;2022-08-01T03:39:52;101383.94;;;18.31;68.28
69060;BME280;56135;37.534;-122.308;2022-08-01T03:42:20;101390.41;;;18.26;68.27
69060;BME280;56135;37.534;-122.308;2022-08-01T03:44:54;101391.50;;;18.20;68.52
69060;BME280;56135;37.534;-122.308;2022-08-01T03:47:26;101379.16;;;18.16;68.39
69060;BME280;56135;37.534;-122.308;2022-08-01T03:49:55;101388.09;;;18.15;68.66
69060;BME280;56135;37.534;-122.308;2022-08-01T03:52:23;101393.88;;;18.03;69.01
69060;BME280;56135;37.534;-122.308;2022-08-01T03:54:51;101399.31;;;17.99;69.09
69060;BME280;56135;37.534;-122.308;2022-08-01T03:57:19;101399.56;;;17.90;69.42
69060;BME280;56135;37.534;-122.308;2022-08-01T03:59:46;101401.63;;;17.82;69.80
69060;BME280;56135;37.534;-122.308;2022-08-01T04:02:12;101399.16;;;17.76;70.23
69060;BME280;56135;37.534;-122.308;2022-08-01T04:04:40;101403.13;;;17.64;70.50
69060;BME280;56135;37.534;-122.308;2022-08-01T04:07:20;101406.94;;;17.55;71.04
69060;BME280;56135;37.534;-122.308;2022-08-01T04:09:46;101412.56;;;17.46;71.35
69060;BME280;56135;37.534;-122.308;2022-08-01T04:12:11;101413.44;;;17.46;71.16
69060;BME280;56135;37.534;-122.308;2022-08-01T04:14:38;101414.44;;;17.42;71.51
69060;BME280;56135;37.534;-122.308;2022-08-01T04:17:04;101412.81;;;17.38;71.53
69060;BME280;56135;37.534;-122.308;2022-08-01T04:19:29;101416.50;;;17.34;71.65
69060;BME280;56135;37.534;-122.308;2022-08-01T04:21:55;101426.53;;;17.26;71.99
69060;BME280;56135;37.534;-122.308;2022-08-01T04:24:21;101422.97;;;17.25;71.37
69060;BME280;56135;37.534;-122.308;2022-08-01T04:26:49;101433.66;;;17.25;71.94
69060;BME280;56135;37.534;-122.308;2022-08-01T04:29:16;101439.00;;;17.25;71.84
69060;BME280;56135;37.534;-122.308;2022-08-01T04:31:43;101444.53;;;17.19;72.02
69060;BME280;56135;37.534;-122.308;2022-08-01T04:34:10;101437.75;;;17.07;72.58
69060;BME280;56135;37.534;-122.308;2022-08-01T04:36:38;101442.50;;;16.96;73.11
69060;BME280;56135;37.534;-122.308;2022-08-01T04:39:07;101453.34;;;16.91;73.21
69060;BME280;56135;37.534;-122.308;2022-08-01T04:41:34;101461.38;;;16.88;73.56
69060;BME280;56135;37.534;-122.308;2022-08-01T04:44:02;101462.69;;;16.73;74.23
69060;BME280;56135;37.534;-122.308;2022-08-01T04:46:28;101465.72;;;16.59;74.71
69060;BME280;56135;37.534;-122.308;2022-08-01T04:48:55;101472.97;;;16.54;74.96
69060;BME280;56135;37.534;-122.308;2022-08-01T04:51:21;101463.25;;;16.51;75.40
69060;BME280;56135;37.534;-122.308;2022-08-01T04:53:47;101467.03;;;16.43;75.53
69060;BME280;56135;37.534;-122.308;2022-08-01T04:56:13;101480.44;;;16.40;75.42
69060;BME280;56135;37.534;-122.308;2022-08-01T04:58:43;101490.34;;;16.34;75.86
69060;BME280;56135;37.534;-122.308;2022-08-01T05:01:09;101483.41;;;16.29;76.19
69060;BME280;56135;37.534;-122.308;2022-08-01T05:03:35;101493.09;;;16.31;75.83
69060;BME280;56135;37.534;-122.308;2022-08-01T05:06:00;101489.63;;;16.28;75.83
69060;BME280;56135;37.534;-122.308;2022-08-01T05:08:26;101493.28;;;16.24;75.78
69060;BME280;56135;37.534;-122.308;2022-08-01T05:10:52;101491.66;;;16.18;76.48
69060;BME280;56135;37.534;-122.308;2022-08-01T05:13:18;101485.50;;;16.14;76.51
69060;BME280;56135;37.534;-122.308;2022-08-01T05:15:44;101493.56;;;16.13;75.87
69060;BME280;56135;37.534;-122.308;2022-08-01T05:18:10;101499.84;;;16.10;76.58
69060;BME280;56135;37.534;-122.308;2022-08-01T05:20:36;101504.34;;;16.07;76.72
69060;BME280;56135;37.534;-122.308;2022-08-01T05:23:03;101502.59;;;16.06;76.52
69060;BME280;56135;37.534;-122.308;2022-08-01T05:25:28;101501.84;;;15.99;77.35
69060;BME280;56135;37.534;-122.308;2022-08-01T05:27:54;101493.00;;;15.98;77.38
69060;BME280;56135;37.534;-122.308;2022-08-01T05:30:20;101493.03;;;15.97;77.17
69060;BME280;56135;37.534;-122.308;2022-08-01T05:32:46;101497.47;;;15.96;77.16
69060;BME280;56135;37.534;-122.308;2022-08-01T05:35:11;101490.38;;;15.95;77.70
69060;BME280;56135;37.534;-122.308;2022-08-01T05:37:37;101492.31;;;15.89;77.83
69060;BME280;56135;37.534;-122.308;2022-08-01T05:40:03;101492.41;;;15.86;77.93
69060;BME280;56135;37.534;-122.308;2022-08-01T05:42:29;101498.59;;;15.86;78.93
69060;BME280;56135;37.534;-122.308;2022-08-01T05:44:55;101490.69;;;15.83;78.89
69060;BME280;56135;37.534;-122.308;2022-08-01T05:47:21;101493.38;;;15.81;78.82
69060;BME280;56135;37.534;-122.308;2022-08-01T05:49:46;101509.38;;;15.81;78.66
69060;BME280;56135;37.534;-122.308;2022-08-01T05:52:12;101516.50;;;15.81;78.77
69060;BME280;56135;37.534;-122.308;2022-08-01T05:54:39;101514.72;;;15.80;79.18
69060;BME280;56135;37.534;-122.308;2022-08-01T05:57:05;101512.13;;;15.75;79.71
69060;BME280;56135;37.534;-122.308;2022-08-01T05:59:31;101519.38;;;15.68;79.75
69060;BME280;56135;37.534;-122.308;2022-08-01T06:01:57;101523.03;;;15.64;79.88
69060;BME280;56135;37.534;-122.308;2022-08-01T06:04:22;101526.59;;;15.65;80.21
69060;BME280;56135;37.534;-122.308;2022-08-01T06:06:48;101533.63;;;15.66;80.06
69060;BME280;56135;37.534;-122.308;2022-08-01T06:09:14;101528.31;;;15.66;80.16
69060;BME280;56135;37.534;-122.308;2022-08-01T06:11:40;101529.25;;;15.65;80.06
69060;BME280;56135;37.534;-122.308;2022-08-01T06:14:06;101519.56;;;15.59;80.51
69060;BME280;56135;37.534;-122.308;2022-08-01T06:16:32;101517.81;;;15.60;80.59
69060;BME280;56135;37.534;-122.308;2022-08-01T06:18:58;101527.63;;;15.56;80.33
69060;BME280;56135;37.534;-122.308;2022-08-01T06:21:24;101527.59;;;15.58;80.39
69060;BME280;56135;37.534;-122.308;2022-08-01T06:23:50;101528.47;;;15.58;80.67
69060;BME280;56135;37.534;-122.308;2022-08-01T06:26:19;101525.84;;;15.57;80.94
69060;BME280;56135;37.534;-122.308;2022-08-01T06:28:45;101521.56;;;15.49;81.41
69060;BME280;56135;37.534;-122.308;2022-08-01T06:31:11;101521.59;;;15.48;81.51
69060;BME280;56135;37.534;-122.308;2022-08-01T06:33:38;101524.28;;;15.48;82.21
69060;BME280;56135;37.534;-122.308;2022-08-01T06:36:04;101526.16;;;15.43;82.14
69060;BME280;56135;37.534;-122.308;2022-08-01T06:38:30;101518.25;;;15.38;82.43
69060;BME280;56135;37.534;-122.308;2022-08-01T06:40:56;101514.72;;;15.38;82.07
69060;BME280;56135;37.534;-122.308;2022-08-01T06:43:22;101512.91;;;15.38;81.71
69060;BME280;56135;37.534;-122.308;2022-08-01T06:45:48;101508.50;;;15.39;82.06
69060;BME280;56135;37.534;-122.308;2022-08-01T06:48:14;101511.16;;;15.39;82.00
69060;BME280;56135;37.534;-122.308;2022-08-01T06:50:40;101509.38;;;15.38;82.32
69060;BME280;56135;37.534;-122.308;2022-08-01T06:53:06;101504.97;;;15.37;82.10
69060;BME280;56135;37.534;-122.308;2022-08-01T06:55:32;101504.06;;;15.38;81.36
69060;BME280;56135;37.534;-122.308;2022-08-01T06:57:58;101507.56;;;15.40;81.08
69060;BME280;56135;37.534;-122.308;2022-08-01T07:00:24;101503.19;;;15.37;81.24
69060;BME280;56135;37.534;-122.308;2022-08-01T07:02:51;101501.38;;;15.39;81.19
69060;BME280;56135;37.534;-122.308;2022-08-01T07:05:17;101504.06;;;15.38;81.32
69060;BME280;56135;37.534;-122.308;2022-08-01T07:07:43;101507.59;;;15.38;80.84
69060;BME280;56135;37.534;-122.308;2022-08-01T07:10:09;101508.50;;;15.39;80.58
69060;BME280;56135;37.534;-122.308;2022-08-01T07:12:35;101503.09;;;15.42;80.75
69060;BME280;56135;37.534;-122.308;2022-08-01T07:15:06;101492.50;;;15.39;80.34
69060;BME280;56135;37.534;-122.308;2022-08-01T07:17:35;101486.38;;;15.35;80.80
69060;BME280;56135;37.534;-122.308;2022-08-01T07:20:01;101476.56;;;15.37;81.09
69060;BME280;56135;37.534;-122.308;2022-08-01T07:22:27;101482.88;;;15.31;81.18
69060;BME280;56135;37.534;-122.308;2022-08-01T07:24:53;101480.19;;;15.33;81.21
69060;BME280;56135;37.534;-122.308;2022-08-01T07:27:18;101478.47;;;15.32;81.14
69060;BME280;56135;37.534;-122.308;2022-08-01T07:29:44;101470.47;;;15.32;81.18
69060;BME280;56135;37.534;-122.308;2022-08-01T07:32:10;101467.84;;;15.29;81.04
69060;BME280;56135;37.534;-122.308;2022-08-01T07:34:36;101475.00;;;15.27;81.70
69060;BME280;56135;37.534;-122.308;2022-08-01T07:37:01;101467.88;;;15.27;81.21
69060;BME280;56135;37.534;-122.308;2022-08-01T07:39:27;101469.59;;;15.30;80.67
69060;BME280;56135;37.534;-122.308;2022-08-01T07:41:53;101467.81;;;15.30;81.26
69060;BME280;56135;37.534;-122.308;2022-08-01T07:44:19;101468.78;;;15.26;81.45
69060;BME280;56135;37.534;-122.308;2022-08-01T07:46:44;101455.53;;;15.25;81.41
69060;BME280;56135;37.534;-122.308;2022-08-01T07:49:10;101465.25;;;15.26;81.09
69060;BME280;56135;37.534;-122.308;2022-08-01T07:51:36;101460.81;;;15.26;80.78
69060;BME280;56135;37.534;-122.308;2022-08-01T07:54:03;101457.25;;;15.27;80.99
69060;BME280;56135;37.534;-122.308;2022-08-01T07:56:29;101461.75;;;15.25;80.74
69060;BME280;56135;37.534;-122.308;2022-08-01T07:58:54;101458.16;;;15.26;80.52
69060;BME280;56135;37.534;-122.308;2022-08-01T08:01:20;101462.59;;;15.26;80.62
69060;BME280;56135;37.534;-122.308;2022-08-01T08:03:46;101459.06;;;15.25;80.60
69060;BME280;56135;37.534;-122.308;2022-08-01T08:06:12;101460.91;;;15.22;81.97
69060;BME280;56135;37.534;-122.308;2022-08-01T08:08:37;101461.09;;;15.12;82.92
69060;BME280;56135;37.534;-122.308;2022-08-01T08:11:03;101465.53;;;15.12;82.59
69060;BME280;56135;37.534;-122.308;2022-08-01T08:13:29;101455.66;;;15.17;81.88
69060;BME280;56135;37.534;-122.308;2022-08-01T08:15:55;101451.25;;;15.17;81.67
69060;BME280;56135;37.534;-122.308;2022-08-01T08:18:21;101452.97;;;15.20;81.68
69060;BME280;56135;37.534;-122.308;2022-08-01T08:20:46;101454.69;;;15.21;82.22
69060;BME280;56135;37.534;-122.308;2022-08-01T08:23:12;101459.22;;;15.17;82.89
69060;BME280;56135;37.534;-122.308;2022-08-01T08:25:56;101458.34;;;15.17;82.32
69060;BME280;56135;37.534;-122.308;2022-08-01T08:28:22;101465.44;;;15.16;82.44
69060;BME280;56135;37.534;-122.308;2022-08-01T08:30:48;101459.22;;;15.17;82.79
69060;BME280;56135;37.534;-122.308;2022-08-01T08:33:14;101454.72;;;15.20;82.62
69060;BME280;56135;37.534;-122.308;2022-08-01T08:35:40;101452.97;;;15.20;81.85
69060;BME280;56135;37.534;-122.308;2022-08-01T08:38:06;101457.34;;;15.23;82.04
69060;BME280;56135;37.534;-122.308;2022-08-01T08:40:32;101452.97;;;15.20;82.54
69060;BME280;56135;37.534;-122.308;2022-08-01T08:43:00;101451.28;;;15.16;82.35
69060;BME280;56135;37.534;-122.308;2022-08-01T08:45:26;101452.22;;;15.13;83.18
69060;BME280;56135;37.534;-122.308;2022-08-01T08:47:52;101456.59;;;15.16;82.81
69060;BME280;56135;37.534;-122.308;2022-08-01T08:50:19;101459.44;;;15.07;83.22
69060;BME280;56135;37.534;-122.308;2022-08-01T08:52:45;101464.69;;;15.10;82.61
69060;BME280;56135;37.534;-122.308;2022-08-01T08:55:11;101459.34;;;15.11;82.64
69060;BME280;56135;37.534;-122.308;2022-08-01T08:57:40;101463.72;;;15.14;82.22
69060;BME280;56135;37.534;-122.308;2022-08-01T09:00:06;101464.75;;;15.08;82.63
69060;BME280;56135;37.534;-122.308;2022-08-01T09:02:32;101466.47;;;15.11;82.03
69060;BME280;56135;37.534;-122.308;2022-08-01T09:04:57;101460.28;;;15.09;82.89
69060;BME280;56135;37.534;-122.308;2022-08-01T09:07:23;101461.19;;;15.08;82.06
69060;BME280;56135;37.534;-122.308;2022-08-01T09:09:51;101451.66;;;14.97;84.12
69060;BME280;56135;37.534;-122.308;2022-08-01T09:12:17;101449.91;;;14.96;83.62
69060;BME280;56135;37.534;-122.308;2022-08-01T09:14:44;101458.69;;;14.98;82.73
69060;BME280;56135;37.534;-122.308;2022-08-01T09:17:10;101470.16;;;15.02;82.51
69060;BME280;56135;37.534;-122.308;2022-08-01T09:19:41;101465.72;;;15.02;82.81
69060;BME280;56135;37.534;-122.308;2022-08-01T09:22:08;101469.31;;;15.01;82.60
69060;BME280;56135;37.534;-122.308;2022-08-01T09:24:34;101482.56;;;15.03;82.50
69060;BME280;56135;37.534;-122.308;2022-08-01T09:27:01;101488.84;;;15.00;82.53
69060;BME280;56135;37.534;-122.308;2022-08-01T09:29:28;101501.22;;;15.01;82.62
69060;BME280;56135;37.534;-122.308;2022-08-01T09:31:55;101498.53;;;15.03;82.90
69060;BME280;56135;37.534;-122.308;2022-08-01T09:34:30;101496.75;;;15.04;82.18
69060;BME280;56135;37.534;-122.308;2022-08-01T09:36:59;101499.41;;;15.04;82.05
69060;BME280;56135;37.534;-122.308;2022-08-01T09:41:51;101504.72;;;15.04;82.44
69060;BME280;56135;37.534;-122.308;2022-08-01T09:44:17;101496.84;;;14.99;82.68
69060;BME280;56135;37.534;-122.308;2022-08-01T09:47:04;101494.16;;;15.00;82.18
69060;BME280;56135;37.534;-122.308;2022-08-01T09:49:34;101497.75;;;14.98;82.45
69060;BME280;56135;37.534;-122.308;2022-08-01T09:52:16;101505.66;;;15.01;82.04
69060;BME280;56135;37.534;-122.308;2022-08-01T09:54:43;101500.34;;;15.01;81.84
69060;BME280;56135;37.534;-122.308;2022-08-01T09:57:13;101508.31;;;15.01;81.70
69060;BME280;56135;37.534;-122.308;2022-08-01T09:59:40;101511.91;;;15.00;81.84
69060;BME280;56135;37.534;-122.308;2022-08-01T10:02:14;101511.97;;;14.95;82.78
69060;BME280;56135;37.534;-122.308;2022-08-01T10:04:58;101507.63;;;14.91;83.08
69060;BME280;56135;37.534;-122.308;2022-08-01T10:07:24;101501.34;;;14.95;82.65
69060;BME280;56135;37.534;-122.308;2022-08-01T10:09:50;101495.16;;;14.95;84.15
69060;BME280;56135;37.534;-122.308;2022-08-01T10:12:19;101503.13;;;14.95;84.82
69060;BME280;56135;37.534;-122.308;2022-08-01T10:14:49;101507.56;;;14.94;84.44
69060;BME280;56135;37.534;-122.308;2022-08-01T10:17:16;101504.91;;;14.94;84.88
69060;BME280;56135;37.534;-122.308;2022-08-01T10:19:42;101499.63;;;14.93;85.17
69060;BME280;56135;37.534;-122.308;2022-08-01T10:22:09;101500.47;;;14.93;84.31
69060;BME280;56135;37.534;-122.308;2022-08-01T10:24:38;101507.63;;;14.91;84.51
69060;BME280;56135;37.534;-122.308;2022-08-01T10:27:05;101513.00;;;14.90;84.38
69060;BME280;56135;37.534;-122.308;2022-08-01T10:29:34;101498.78;;;14.89;84.21
69060;BME280;56135;37.534;-122.308;2022-08-01T10:32:02;101499.72;;;14.88;84.15
69060;BME280;56135;37.534;-122.308;2022-08-01T10:34:29;101494.34;;;14.91;83.52
69060;BME280;56135;37.534;-122.308;2022-08-01T10:36:55;101498.78;;;14.91;83.61
69060;BME280;56135;37.534;-122.308;2022-08-01T10:39:21;101492.56;;;14.90;84.35
69060;BME280;56135;37.534;-122.308;2022-08-01T10:41:48;101483.75;;;14.88;84.68
69060;BME280;56135;37.534;-122.308;2022-08-01T10:44:13;101486.41;;;14.87;83.73
69060;BME280;56135;37.534;-122.308;2022-08-01T10:46:42;101486.41;;;14.88;83.55
69060;BME280;56135;37.534;-122.308;2022-08-01T10:49:14;101488.22;;;14.86;83.51
69060;BME280;56135;37.534;-122.308;2022-08-01T10:51:40;101484.69;;;14.84;83.37
69060;BME280;56135;37.534;-122.308;2022-08-01T10:54:07;101482.09;;;14.81;83.77
69060;BME280;56135;37.534;-122.308;2022-08-01T10:59:05;101491.94;;;14.76;84.84
69060;BME280;56135;37.534;-122.308;2022-08-01T11:01:31;101489.38;;;14.71;84.36
69060;BME280;56135;37.534;-122.308;2022-08-01T11:09:03;101488.41;;;14.75;83.57
69060;BME280;56135;37.534;-122.308;2022-08-01T11:11:29;101484.88;;;14.75;83.10
69060;BME280;56135;37.534;-122.308;2022-08-01T11:18:52;101485.97;;;14.64;85.14
69060;BME280;56135;37.534;-122.308;2022-08-01T11:21:18;101483.22;;;14.67;84.84
69060;BME280;56135;37.534;-122.308;2022-08-01T11:23:48;101490.28;;;14.70;84.41
69060;BME280;56135;37.534;-122.308;2022-08-01T11:26:14;101493.81;;;14.71;84.19
69060;BME280;56135;37.534;-122.308;2022-08-01T11:28:40;101495.59;;;14.70;83.98
69060;BME280;56135;37.534;-122.308;2022-08-01T11:38:37;101514.25;;;14.68;84.05
69060;BME280;56135;37.534;-122.308;2022-08-01T11:41:17;101510.69;;;14.70;84.11
69060;BME280;56135;37.534;-122.308;2022-08-01T11:46:44;101509.75;;;14.71;84.29
69060;BME280;56135;37.534;-122.308;2022-08-01T11:52:24;101513.28;;;14.73;84.57
69060;BME280;56135;37.534;-122.308;2022-08-01T11:54:43;101516.81;;;14.73;84.60
69060;BME280;56135;37.534;-122.308;2022-08-01T11:57:10;101507.09;;;14.71;84.61
69060;BME280;56135;37.534;-122.308;2022-08-01T11:59:41;101521.31;;;14.68;84.48
69060;BME280;56135;37.534;-122.308;2022-08-01T12:02:21;101518.66;;;14.68;84.65
69060;BME280;56135;37.534;-122.308;2022-08-01T12:04:47;101522.25;;;14.65;84.83
69060;BME280;56135;37.534;-122.308;2022-08-01T12:07:14;101519.59;;;14.67;84.45
69060;BME280;56135;37.534;-122.308;2022-08-01T12:09:40;101532.03;;;14.65;84.44
69060;BME280;56135;37.534;-122.308;2022-08-01T12:12:06;101532.06;;;14.63;84.42
69060;BME280;56135;37.534;-122.308;2022-08-01T12:14:32;101529.44;;;14.59;84.49
69060;BME280;56135;37.534;-122.308;2022-08-01T12:16:57;101537.41;;;14.60;85.16
69060;BME280;56135;37.534;-122.308;2022-08-01T12:19:24;101540.97;;;14.59;84.87
69060;BME280;56135;37.534;-122.308;2022-08-01T12:24:32;101538.38;;;14.55;84.70
69060;BME280;56135;37.534;-122.308;2022-08-01T12:26:58;101546.44;;;14.50;85.65
69060;BME280;56135;37.534;-122.308;2022-08-01T12:29:31;101551.78;;;14.48;85.29
69060;BME280;56135;37.534;-122.308;2022-08-01T12:31:56;101547.38;;;14.47;85.21
69060;BME280;56135;37.534;-122.308;2022-08-01T12:34:29;101543.84;;;14.45;85.15
69060;BME280;56135;37.534;-122.308;2022-08-01T12:36:56;101541.22;;;14.44;85.07
69060;BME280;56135;37.534;-122.308;2022-08-01T12:39:22;101547.41;;;14.43;85.19
69060;BME280;56135;37.534;-122.308;2022-08-01T12:41:54;101549.22;;;14.42;84.74
69060;BME280;56135;37.534;-122.308;2022-08-01T12:44:19;101551.00;;;14.42;85.41
69060;BME280;56135;37.534;-122.308;2022-08-01T12:46:45;101546.59;;;14.41;86.25
69060;BME280;56135;37.534;-122.308;2022-08-01T12:49:11;101558.06;;;14.44;86.41
69060;BME280;56135;37.534;-122.308;2022-08-01T12:51:38;101550.00;;;14.49;87.65
69060;BME280;56135;37.534;-122.308;2022-08-01T12:54:04;101541.13;;;14.50;88.18
69060;BME280;56135;37.534;-122.308;2022-08-01T12:56:33;101538.41;;;14.53;88.05
69060;BME280;56135;37.534;-122.308;2022-08-01T12:58:59;101533.16;;;14.50;88.21
69060;BME280;56135;37.534;-122.308;2022-08-01T13:01:26;101530.47;;;14.50;87.89
69060;BME280;56135;37.534;-122.308;2022-08-01T13:04:02;101537.44;;;14.57;88.07
69060;BME280;56135;37.534;-122.308;2022-08-01T13:06:31;101531.22;;;14.58;88.08
69060;BME280;56135;37.534;-122.308;2022-08-01T13:09:04;101531.19;;;14.60;87.65
69060;BME280;56135;37.534;-122.308;2022-08-01T13:11:30;101535.59;;;14.64;87.37